MMVR/VER METAR and TAF weather

Enter ICAO airport designator
Station Type Date Time Source
MMVR METAR 2022/11/30 17:42 UTC NOAA

MMVR 301742Z 36007KT 4SM FEW015 OVC030 29/24 A2996 RMK SLP134 52007 937 8/8// HZY


Station Type Date Time Source
MMVR Decoded METAR 2022/11/30 17:42 UTC NOAA

Veracruz / Las Bajadas / General Heriberto Jara, Mexico (MMVR) 19-09N 096-11W
Nov 30, 2022 - 12:42 PM EST / 2022.11.30 1742 UTC
Wind: from the N (360 degrees) at 8 MPH (7 KT):0
Visibility: 4 mile(s):0
Sky conditions: overcast
Temperature: 84 F (29 C)
Dew Point: 75 F (24 C)
Relative Humidity: 74%
Pressure (altimeter): 29.96 in. Hg (1014 hPa)
Pressure tendency: 0.02 inches (0.7 hPa) higher than three hours ago
ob: MMVR 301742Z 36007KT 4SM FEW015 OVC030 29/24 A2996 RMK SLP134 52007 937 8/8// HZY
cycle: 17

Station Type Date Time Source
MMVR TAF 2022/11/30 18:24 UTC NOAA

TAF MMVR 301719Z 3018/0118 03010KT 4SM HZ BKN020 BKN070 BKN250 TX31/3018Z TN20/0112Z
TEMPO 3018/3022 3SM RA
FM302200 02010G20KT 6SM HZ BKN025 BKN070
BECMG 0100/0101 SCT010 SCT030
FM010400 02010KT 6SM -RA BKN015CB
TEMPO 0105/0109 2SM RA BKN004 OVC015CB
FM010900 34010KT 2SM BR -RA BKN004
FM011400 36015KT 4SM HZ SCT015 BKN030 OVC080

Example: see airport list